Pariquera-Acu, Brazil
Current Conditions -  °F | °C
As of 3:00 PM on Sunday 21 Dec 2014 (Local Time) from SBBI Reporting Station
Thunderstorm Thunderstorm  
Wind Chill: 72°   Ceiling: 1600
Heat Index: 72°   Visibility: 5mi
Dew Point: 70°   Wind: 10mph
Humidity: 94%   Direction: 330°NNW
Pressure: 29.85"   Gusts: NA
Location:  24.72°S, 47.88°W
Report Text: SBBI 211700Z 33009KT 8000 VCTS BKN016 FEW030TCU FEW040CB BKN100 22/21 Q1011 RETS
Loading
Personal Weather Stations






























Interactive Weather Map New forecast layout! Learn more

10-Day Weather Forecast

Advertisements
Track Severe Weather on mobile